Flight Track Log - Related Links

Times and Time Zones

All times are in EDT time to prevent confusion due to time zone crossing. See the TAM3714 flight status page for this flight to view local times or setup timezone preferences in your user account.

Time Position Orientation Groundspeed Altitude Reporting Facility
EDT Latitude Longitude Course Direction KTS MPH feet Rate Location/Type
Sun 08:27:22 PM -23.6470 -46.6410 119° Southeast 169 194 3,500  Level FlightAware ADS-B
Sun 08:27:37 PM -23.6500 -46.6270 103° East 193 222 3,600 900 Climbing FlightAware ADS-B
Sun 08:28:02 PM -23.6360 -46.6040 56° Northeast 215 247 4,100 1,341 Climbing FlightAware ADS-B
Sun 08:29:02 PM -23.5970 -46.5460 54° Northeast 296 341 5,500 1,341 Climbing FlightAware ADS-B
Sun 08:29:27 PM -23.5920 -46.5090 82° East 302 348 6,000 1,091 Climbing FlightAware ADS-B
Sun 08:29:57 PM -23.5840 -46.4630 79° East 311 358 6,500 1,200 Climbing FlightAware ADS-B
Sun 08:30:12 PM -23.5790 -46.4370 78° East 313 360 6,900 2,400 Climbing FlightAware ADS-B
Sun 08:30:42 PM -23.5690 -46.3900 77° East 310 357 8,300 2,850 Climbing FlightAware ADS-B
Sun 08:30:52 PM -23.5650 -46.3750 74° East 310 357 8,800 2,727 Climbing FlightAware ADS-B
Sun 08:31:37 PM -23.5480 -46.3110 74° East 316 364 10,800 2,829 Climbing FlightAware ADS-B
Sun 08:32:02 PM -23.5200 -46.2870 38° Northeast 296 341 12,100 2,400 Climbing FlightAware ADS-B
Sun 08:32:17 PM -23.5000 -46.2840 North 302 348 12,400 1,067 Climbing FlightAware ADS-B
Sun 08:32:47 PM -23.4560 -46.3030 338° Northwest 324 373 12,900 2,057 Climbing FlightAware ADS-B
Sun 08:33:27 PM -23.4030 -46.3310 334° Northwest 323 372 14,800 2,850 Climbing FlightAware ADS-B
Sun 08:34:07 PM -23.3480 -46.3610 333° Northwest 319 367 16,700 1,906 Climbing FlightAware ADS-B
Sun 08:34:52 PM -23.2840 -46.3950 334° Northwest 346 398 17,500 1,765 Climbing FlightAware ADS-B
Sun 08:35:32 PM -23.2260 -46.4250 335° Northwest 339 390 19,200 2,250 Climbing FlightAware ADS-B
Sun 08:36:12 PM -23.1670 -46.4570 333° Northwest 342 394 20,500 1,624 Climbing FlightAware ADS-B
Sun 08:36:57 PM -23.1010 -46.4910 335° Northwest 359 413 21,500 1,482 Climbing FlightAware ADS-B
Sun 08:37:37 PM -23.0400 -46.5240 334° Northwest 359 413 22,600 1,553 Climbing FlightAware ADS-B
Sun 08:38:22 PM -22.9730 -46.5590 334° Northwest 357 411 23,700 1,271 Climbing FlightAware ADS-B
Sun 08:39:02 PM -22.9070 -46.5860 339° North 367 422 24,400 1,129 Climbing FlightAware ADS-B
Sun 08:39:47 PM -22.8330 -46.6170 339° North 379 436 25,300 1,129 Climbing FlightAware ADS-B
Sun 08:40:27 PM -22.7670 -46.6440 339° North 376 433 26,000 1,050 Climbing FlightAware ADS-B
Sun 08:41:07 PM -22.7000 -46.6720 339° North 383 441 26,700 1,129 Climbing FlightAware ADS-B
Sun 08:41:52 PM -22.6230 -46.7040 339° North 393 452 27,600 1,059 Climbing FlightAware ADS-B
Sun 08:42:32 PM -22.5540 -46.7320 339° North 398 458 28,200 918 Climbing FlightAware ADS-B
Sun 08:43:17 PM -22.4760 -46.7640 339° North 396 456 28,900 847 Climbing FlightAware ADS-B
Sun 08:43:57 PM -22.4080 -46.7920 339° North 400 460 29,400 900 Climbing FlightAware ADS-B
Sun 08:44:37 PM -22.3350 -46.8220 339° North 412 474 30,100 847 Climbing FlightAware ADS-B
Sun 08:45:22 PM -22.2540 -46.8550 339° North 411 473 30,600 706 Climbing FlightAware ADS-B
Sun 08:46:02 PM -22.1800 -46.8850 339° North 416 479 31,100 825 Climbing FlightAware ADS-B
Sun 08:46:42 PM -22.1070 -46.9150 339° North 414 476 31,700 918 Climbing FlightAware ADS-B
Sun 08:47:27 PM -22.0240 -46.9490 339° North 416 479 32,400 918 Climbing FlightAware ADS-B
Sun 08:48:07 PM -21.9520 -46.9780 340° North 416 479 33,000 918 Climbing FlightAware ADS-B
Sun 08:48:52 PM -21.8700 -47.0110 340° North 414 476 33,700 918 Climbing FlightAware ADS-B
Sun 08:49:32 PM -21.7950 -47.0420 339° North 414 476 34,300 825 Climbing FlightAware ADS-B
Sun 08:50:12 PM -21.7230 -47.0710 339° North 415 478 34,800 1,059 Climbing FlightAware ADS-B
Sun 08:50:57 PM -21.6390 -47.1050 339° North 411 473 35,800 1,059 Climbing FlightAware ADS-B
Sun 08:51:37 PM -21.5700 -47.1330 339° North 412 474 36,300 706 Climbing FlightAware ADS-B
Sun 08:52:22 PM -21.4890 -47.1660 339° North 411 473 36,800 494 Climbing FlightAware ADS-B
Sun 08:53:02 PM -21.4180 -47.1940 340° North 398 458 37,000 150 Climbing FlightAware ADS-B
Sun 08:53:42 PM -21.3500 -47.2220 339° North 410 472 37,000  Level FlightAware ADS-B
Sun 08:54:27 PM -21.2700 -47.2540 340° North 412 474 37,000  Level FlightAware ADS-B
Sun 08:55:07 PM -21.1930 -47.2850 339° North 411 473 37,000  Level FlightAware ADS-B
Sun 08:55:47 PM -21.1230 -47.3130 340° North 411 473 37,000  Level FlightAware ADS-B
Sun 08:56:32 PM -21.0460 -47.3440 339° North 412 474 37,000  Level FlightAware ADS-B
Sun 08:57:12 PM -20.9770 -47.3720 339° North 413 475 37,000  Level FlightAware ADS-B
Sun 08:57:57 PM -20.8950 -47.4050 339° North 415 478 37,000  Level FlightAware ADS-B
Sun 08:58:37 PM -20.8200 -47.4350 339° North 416 479 37,000  Level FlightAware ADS-B
Sun 08:59:17 PM -20.7440 -47.4650 340° North 416 479 37,000  Level FlightAware ADS-B
Sun 09:00:02 PM -20.6700 -47.4950 339° North 415 478 37,000  Level FlightAware ADS-B
Sun 09:00:42 PM -20.5970 -47.5240 340° North 415 478 37,000  Level FlightAware ADS-B
Sun 09:01:22 PM -20.5230 -47.5540 339° North 415 478 37,000  Level FlightAware ADS-B
Sun 09:02:07 PM -20.4420 -47.5860 340° North 416 479 37,000  Level FlightAware ADS-B
Sun 09:02:47 PM -20.3700 -47.6150 339° North 416 479 37,000  Level FlightAware ADS-B
Sun 09:03:32 PM -20.2900 -47.6470 339° North 415 478 37,000  Level FlightAware ADS-B
Sun 09:04:12 PM -20.2170 -47.6760 340° North 415 478 37,000  Level FlightAware ADS-B
Sun 09:04:57 PM -20.1350 -47.7080 340° North 415 478 37,000  Level FlightAware ADS-B
Sun 09:05:37 PM -20.0750 -47.7320 339° North 415 478 37,000  Level FlightAware ADS-B
Sun 09:06:17 PM -19.9860 -47.7670 340° North 415 478 37,000  Level FlightAware ADS-B
Sun 09:06:57 PM -19.9130 -47.7960 340° North 414 476 37,000  Level FlightAware ADS-B
Sun 09:07:42 PM -19.8310 -47.8280 340° North 415 478 37,000  Level FlightAware ADS-B
Sun 09:08:22 PM -19.7930 -47.8430 340° North 415 478 37,000  Level FlightAware ADS-B
Sun 09:09:07 PM -19.6800 -47.8880 339° North 417 480 37,000  Level FlightAware ADS-B
Sun 09:09:47 PM -19.6080 -47.9160 340° North 419 482 37,000  Level FlightAware ADS-B
Sun 09:10:42 PM -19.5410 -47.9430 339° North 420 483 37,000  Level FlightAware ADS-B
Sun 09:11:27 PM -19.4580 -47.9750 340° North 420 483 37,000  Level FlightAware ADS-B
Sun 09:12:07 PM -19.3830 -48.0050 339° North 420 483 37,000  Level FlightAware ADS-B
Sun 09:12:52 PM -19.3040 -48.0360 340° North 421 484 37,000  Level FlightAware ADS-B
Sun 09:13:32 PM -19.2310 -48.0650 339° North 421 484 37,000  Level FlightAware ADS-B
Sun 09:14:17 PM -19.1500 -48.0960 340° North 421 484 37,000  Level FlightAware ADS-B
Sun 09:14:57 PM -19.0760 -48.1250 340° North 421 484 37,000  Level FlightAware ADS-B
Sun 09:15:37 PM -19.0020 -48.1540 340° North 421 484 37,000  Level FlightAware ADS-B
Sun 09:16:22 PM -18.9240 -48.1850 339° North 421 484 37,000  Level FlightAware ADS-B
Sun 09:17:02 PM -18.8500 -48.2140 340° North 423 487 37,000  Level FlightAware ADS-B
Sun 09:17:42 PM -18.7730 -48.2430 340° North 425 489 37,000  Level FlightAware ADS-B
Sun 09:18:27 PM -18.6920 -48.2750 339° North 427 491 37,000  Level FlightAware ADS-B
Sun 09:19:07 PM -18.6200 -48.3030 340° North 426 490 37,000  Level FlightAware ADS-B
Sun 09:19:52 PM -18.5310 -48.3270 346° North 438 504 37,000  Level FlightAware ADS-B
Sun 09:20:32 PM -18.4450 -48.3320 357° North 437 503 37,000  Level FlightAware ADS-B
Sun 09:21:17 PM -18.3590 -48.3380 356° North 436 502 37,000  Level FlightAware ADS-B
Sun 09:21:57 PM -18.2770 -48.3430 357° North 435 501 37,000  Level FlightAware ADS-B
Sun 09:22:37 PM -18.2010 -48.3470 357° North 433 498 37,000  Level FlightAware ADS-B
Sun 09:23:22 PM -18.1100 -48.3530 356° North 432 497 37,000  Level FlightAware ADS-B
Sun 09:24:17 PM -18.0060 -48.3600 356° North 432 497 37,000  Level FlightAware ADS-B
Sun 09:24:57 PM -17.9390 -48.3650 356° North 432 497 37,000  Level FlightAware ADS-B
Sun 09:25:37 PM -17.8710 -48.3700 356° North 432 497 37,000  Level FlightAware ADS-B
Sun 09:26:17 PM -17.8030 -48.3750 356° North 432 497 37,000  Level FlightAware ADS-B
Sun 09:26:57 PM -17.7350 -48.3800 356° North 432 497 37,000  Level FlightAware ADS-B
Sun 09:27:47 PM -17.6500 -48.3860 356° North 432 497 37,000  Level FlightAware ADS-B
Sun 09:28:27 PM -17.5830 -48.3910 356° North 432 497 37,000  Level FlightAware ADS-B
Sun 09:29:07 PM -17.5150 -48.3960 356° North 432 497 37,000  Level FlightAware ADS-B
Sun 09:29:47 PM -17.4470 -48.4010 356° North 432 497 37,000 -3,953 Level FlightAware ADS-B
Sun 09:30:32 PM -17.2460 -48.4050 359° North 432 497 31,400 -3,714 Descending FlightAware ADS-B
Sun 09:31:32 PM -17.1260 -48.4120 357° North 429 494 30,500 -540 Descending FlightAware ADS-B
Sun 09:32:12 PM -17.0590 -48.4160 357° North 429 494 30,500  Level FlightAware ADS-B
Sun 09:32:52 PM -16.9910 -48.4190 358° North 429 494 30,500 -3,812 Level FlightAware ADS-B
Sun 09:33:37 PM -16.8460 -48.4310 355° North 386 444 25,100 -4,024 Descending FlightAware ADS-B
Sun 09:34:17 PM -16.7860 -48.4390 353° North 381 438 24,800 -1,029 Descending FlightAware ADS-B
Sun 09:34:47 PM -16.7280 -48.4120 24° Northeast 374 430 23,900 -1,280 Descending FlightAware ADS-B
Sun 09:35:32 PM -16.6550 -48.3850 20° North 377 434 23,200 -975 Descending FlightAware ADS-B
Sun 09:36:07 PM -16.5960 -48.3640 19° North 374 430 22,600 -1,350 Descending FlightAware ADS-B
Sun 09:36:52 PM -16.5220 -48.3370 19° North 370 426 21,400 -1,733 Descending FlightAware ADS-B
Sun 09:37:37 PM -16.4490 -48.3100 20° North 363 418 20,000 -1,835 Descending FlightAware ADS-B
Sun 09:38:17 PM -16.3870 -48.2870 20° North 357 411 18,800 -1,725 Descending FlightAware ADS-B
Sun 09:38:57 PM -16.3250 -48.2650 19° North 351 404 17,700 -1,694 Descending FlightAware ADS-B
Sun 09:39:42 PM -16.2560 -48.2400 19° North 344 396 16,400 -1,694 Descending FlightAware ADS-B
Sun 09:40:22 PM -16.1970 -48.2180 20° North 338 389 15,300 -1,575 Descending FlightAware ADS-B
Sun 09:41:02 PM -16.1380 -48.1970 19° North 331 381 14,300 -1,553 Descending FlightAware ADS-B
Sun 09:41:47 PM -16.0760 -48.1740 20° North 326 375 13,100 -1,553 Descending FlightAware ADS-B
Sun 09:42:27 PM -16.0170 -48.1520 20° North 322 371 12,100 -1,200 Descending FlightAware ADS-B
Sun 09:42:42 PM -15.9990 -48.1370 39° Northeast 329 379 12,000 -200 Descending FlightAware ADS-B
Sun 09:42:57 PM -15.9890 -48.1200 59° Northeast 320 368 12,000  Level FlightAware ADS-B
Sun 09:43:12 PM -15.9850 -48.0960 80° East 307 353 12,000  Level FlightAware ADS-B
Sun 09:43:47 PM -15.9820 -48.0490 86° East 279 321 12,000  Level FlightAware ADS-B
Sun 09:44:37 PM -15.9770 -47.9830 86° East 272 313 12,000 -629 Level FlightAware ADS-B
Sun 09:45:32 PM -15.9730 -47.9090 87° East 286 329 10,900 -1,137 Descending FlightAware ADS-B
Sun 09:46:12 PM -15.9690 -47.8560 86° East 300 345 10,200 -1,800 Descending FlightAware ADS-B
Sun 09:46:42 PM -15.9670 -47.8120 87° East 287 330 8,800 -2,640 Descending FlightAware ADS-B
Sun 09:47:02 PM -15.9650 -47.7830 86° East 295 339 8,000 -1,286 Descending FlightAware ADS-B
Sun 09:47:52 PM -15.9530 -47.7180 79° East 279 321 7,300 -923 Descending FlightAware ADS-B
Sun 09:48:07 PM -15.9360 -47.7070 32° Northeast 270 311 7,000 -960 Descending FlightAware ADS-B
Sun 09:48:17 PM -15.9240 -47.7060 North 263 303 6,900 -600 Descending FlightAware ADS-B
Sun 09:48:47 PM -15.8900 -47.7150 346° North 244 281 6,600 -700 Descending FlightAware ADS-B
Sun 09:49:17 PM -15.8610 -47.7270 338° Northwest 228 262 6,200 -600 Descending FlightAware ADS-B
Sun 09:49:27 PM -15.8560 -47.7360 300° West 213 245 6,200 -720 Level FlightAware ADS-B
Sun 09:49:42 PM -15.8530 -47.7520 281° West 201 231 5,900 -400 Descending FlightAware ADS-B
Sun 09:50:12 PM -15.8520 -47.7760 272° West 201 231 5,900 -857 Level FlightAware ADS-B
Sun 09:50:52 PM -15.8560 -47.8110 263° West 165 190 4,900 -1,300 Descending FlightAware ADS-B
Sun 09:51:12 PM -15.8570 -47.8260 266° West 160 184 4,600 -857 Descending FlightAware ADS-B
Sun 09:52:02 PM -15.8600 -47.8660 266° West 150 173 3,900 -758 Descending FlightAware ADS-B
Sun 09:52:47 PM -15.8620 -47.8970 266° West 149 171 3,400 -429 Descending FlightAware ADS-B
Sun 09:53:12 PM -15.8630 -47.9130 266° West 149 171 3,400  Level FlightAware ADS-B
Sun 09:55:00 PM -15.8626 -47.9127 38° Northeast  Level Estimated

Login

Don't have an account? Register now (free) for customized features, flight alerts, and more!